< < Back
Terminal Aerodrome Forecast

Current Version              Previous Versions:   1  2  3  4  5  6  7  8  9  

Terminal Aerodrome Forecast

FTUS44 KMRX 012323
KTYS 012323Z 0200/0224 VRB04KT 3SM -RA BR SCT025 OVC045
      TEMPO 0200/0204 1 1/2SM RA BR SCT006 OVC020
     FM020400 VRB03KT 2SM -RA BR SCT007 OVC015
     FM020800 24004KT 1 1/2SM -RA BR OVC007
     FM021330 24008KT 5SM BR VCSH BKN015
     FM021530 24010KT P6SM BKN025
     FM021800 24010KT P6SM SCT035=

Latest METAR

SAUS80 KWBC 020100
METAR KTYS 020053Z 23007KT 6SM RA BR SCT050 BKN075 OVC090 15/14 A2994
RMK AO2 SLP134 P0005 T01500144

USA.gov is the U.S. government's official web portal to all federal, state and local government web resources and services.